Portada
METAR-TAF:

METAR-TAF

Aeropuertos :

Alton / San Luis, Illinois, Estados Unidos

latitud: 38-54N, longitud: 090-03W, altitud: 166 m

Observación

El informe se hizo hace 25 minutos, a las 08:35 UTC
Viento calma
Temperatura 20°C
Humedad 100%
Presión 1015 hPa
Visibilidad: 8.0 km
Cielo despejado
neblina

METAR: KALN 060835Z AUTO 00000KT 5SM BR CLR 20/20 A2998 RMK AO2 T02000200

Hora: 04:00 (09:00 UTC)


TAF: falta

Observaciones y pronósticos meteorológicos de más de 4000 aeropuertos (mensajes METAR y TAF).

Los puntos amarillos y rojos representan las estaciones disponibles.

Ponga el ratón en el punto deseado para ver el nombre de la estación.

Haga clic para ver las observaciones y los pronósticos meteorológicos.

Para cambiar el mapa : haga clic en los botones verdes con una cruz de color negro para hacer un zoom, en el botón verde con un guión para alejar o en las flechas verdes para mapas adyacentes.


METAR-TAF: